createdAt,value
2022-12-16T00:00:29.421Z,70.68
2022-12-16T00:02:31.008Z,65.22
2022-12-16T00:04:32.528Z,74.32
2022-12-16T00:06:34.266Z,61.50
2022-12-16T00:08:38.534Z,69.97
2022-12-16T00:10:55.131Z,67.65
2022-12-16T00:12:56.624Z,70.60
2022-12-16T00:14:58.133Z,65.00
2022-12-16T00:16:59.614Z,64.15
2022-12-16T00:19:01.113Z,66.90
2022-12-16T00:21:03.518Z,68.38
2022-12-16T00:23:05.119Z,64.05
2022-12-16T00:25:07.025Z,67.65
2022-12-16T00:27:08.490Z,73.70
2022-12-16T00:29:11.180Z,63.65
2022-12-16T00:31:12.980Z,64.65
2022-12-16T00:33:14.431Z,70.90
2022-12-16T00:35:15.987Z,69.53
2022-12-16T00:37:17.550Z,65.50
2022-12-16T00:39:19.003Z,63.67
2022-12-16T00:41:20.755Z,73.75
2022-12-16T00:43:22.838Z,62.38
2022-12-16T00:45:24.359Z,64.38
2022-12-16T00:47:25.825Z,62.83
2022-12-16T00:49:27.350Z,61.00
2022-12-16T00:51:28.784Z,57.17
2022-12-16T00:53:30.682Z,64.25
2022-12-16T00:55:32.840Z,61.33
2022-12-16T00:57:34.388Z,64.97
2022-12-16T00:59:35.849Z,55.97
2022-12-16T01:01:37.372Z,59.33
2022-12-16T01:03:39.449Z,61.33
2022-12-16T01:05:41.120Z,63.15
2022-12-16T01:07:42.836Z,65.30
2022-12-16T01:09:44.284Z,63.60
2022-12-16T01:11:45.731Z,65.18
2022-12-16T01:13:52.079Z,59.38
2022-12-16T01:15:54.475Z,59.58
2022-12-16T01:17:56.119Z,60.58
2022-12-16T01:19:57.593Z,60.95
2022-12-16T01:21:59.043Z,71.90
2022-12-16T01:24:00.442Z,62.58
2022-12-16T01:26:02.270Z,67.93
2022-12-16T01:28:04.209Z,67.65
2022-12-16T01:30:06.339Z,68.72
2022-12-16T01:32:18.003Z,76.25
2022-12-16T01:34:19.474Z,76.72
2022-12-16T01:36:21.122Z,66.72
2022-12-16T01:38:22.679Z,74.97
2022-12-16T01:40:24.916Z,71.55
2022-12-16T01:42:31.110Z,67.03
2022-12-16T01:44:34.296Z,67.88
2022-12-16T01:46:38.646Z,67.32
2022-12-16T01:48:43.181Z,61.08
2022-12-16T01:50:45.447Z,68.10
2022-12-16T01:52:52.703Z,73.35
2022-12-16T01:54:59.954Z,65.30
2022-12-16T01:57:11.882Z,58.50
2022-12-16T01:59:16.923Z,69.72
2022-12-16T02:01:18.619Z,61.40
2022-12-16T02:03:20.227Z,72.85
2022-12-16T02:05:22.439Z,66.35
2022-12-16T02:07:24.442Z,76.97
2022-12-16T02:09:26.344Z,72.75
2022-12-16T02:11:59.955Z,69.70
2022-12-16T02:14:01.439Z,70.95
2022-12-16T02:16:28.899Z,67.97
2022-12-16T02:18:47.013Z,70.18
2022-12-16T02:21:15.701Z,76.05
2022-12-16T02:23:42.685Z,58.28
2022-12-16T02:26:05.791Z,63.17
2022-12-16T02:28:10.132Z,68.15
2022-12-16T02:30:26.944Z,72.88
2022-12-16T02:32:58.708Z,57.10
2022-12-16T02:35:17.090Z,77.47
2022-12-16T02:37:31.597Z,75.50
2022-12-16T02:39:51.827Z,76.47
2022-12-16T02:42:07.459Z,66.32
2022-12-16T02:44:11.082Z,73.07
2022-12-16T02:46:12.742Z,72.43
2022-12-16T02:48:14.377Z,77.45
2022-12-16T02:50:21.541Z,80.30
2022-12-16T02:52:25.855Z,75.97
2022-12-16T02:54:28.450Z,77.32
2022-12-16T02:56:29.883Z,84.93
2022-12-16T02:58:43.473Z,77.30
2022-12-16T03:01:00.122Z,302.90
2022-12-16T03:03:08.079Z,90.68
2022-12-16T03:05:26.657Z,79.65
2022-12-16T03:07:32.060Z,71.05
2022-12-16T03:09:36.691Z,83.10
2022-12-16T03:11:41.442Z,80.55
2022-12-16T03:13:49.913Z,75.13
2022-12-16T03:15:54.153Z,85.60
2022-12-16T03:17:56.930Z,75.03
2022-12-16T03:20:26.599Z,80.20
2022-12-16T03:22:31.718Z,79.43
2022-12-16T03:24:33.749Z,87.40
2022-12-16T03:26:43.496Z,74.47
2022-12-16T03:29:06.711Z,80.55
2022-12-16T03:31:32.766Z,72.43
2022-12-16T03:33:58.325Z,64.80
2022-12-16T03:36:09.661Z,77.28
2022-12-16T03:38:12.837Z,78.95
2022-12-16T03:40:15.393Z,74.57
2022-12-16T03:42:17.014Z,100.50
2022-12-16T03:44:19.385Z,85.30
2022-12-16T03:46:21.031Z,83.05
2022-12-16T03:48:25.083Z,83.50
2022-12-16T03:50:33.898Z,74.60
2022-12-16T03:52:35.336Z,64.40
2022-12-16T03:54:37.304Z,80.88
2022-12-16T03:56:38.874Z,64.28
2022-12-16T03:58:40.451Z,77.85
2022-12-16T04:00:42.130Z,78.05
2022-12-16T04:02:44.033Z,67.47
2022-12-16T04:04:45.603Z,82.70
2022-12-16T04:07:07.048Z,86.68
2022-12-16T04:09:08.733Z,106.93
2022-12-16T04:11:28.664Z,102.95
2022-12-16T04:13:48.697Z,77.38
2022-12-16T04:16:08.837Z,96.13
2022-12-16T04:18:37.885Z,94.85
2022-12-16T04:21:01.856Z,93.38
2022-12-16T04:23:23.259Z,83.18
2022-12-16T04:25:29.706Z,111.90
2022-12-16T04:27:31.167Z,166.95
2022-12-16T04:29:32.895Z,92.28
2022-12-16T04:31:34.495Z,85.93
2022-12-16T04:33:54.894Z,85.28
2022-12-16T04:36:14.878Z,170.13
2022-12-16T04:38:34.882Z,139.40
2022-12-16T04:40:54.734Z,135.55
2022-12-16T04:43:15.698Z,111.30
2022-12-16T04:45:36.273Z,122.63
2022-12-16T04:47:57.612Z,69.38
2022-12-16T04:50:18.027Z,88.03
2022-12-16T04:52:37.902Z,93.88
2022-12-16T04:54:57.936Z,75.85
2022-12-16T04:57:17.892Z,72.72
2022-12-16T04:59:37.927Z,75.75
2022-12-16T05:01:57.994Z,80.20
2022-12-16T05:04:18.229Z,67.05
2022-12-16T05:06:39.217Z,84.95
2022-12-16T05:08:59.145Z,141.20
2022-12-16T05:11:19.066Z,95.47
2022-12-16T05:13:58.742Z,108.03
2022-12-16T05:16:18.984Z,97.60
2022-12-16T05:18:38.880Z,109.13
2022-12-16T05:20:59.041Z,95.90
2022-12-16T05:23:19.310Z,81.60
2022-12-16T05:25:39.798Z,84.93
2022-12-16T05:28:00.381Z,83.32
2022-12-16T05:30:20.681Z,63.13
2022-12-16T05:32:40.561Z,81.88
2022-12-16T05:35:00.564Z,53.17
2022-12-16T05:37:20.320Z,73.55
2022-12-16T05:39:40.135Z,105.97
2022-12-16T05:42:00.040Z,131.25
2022-12-16T05:44:20.183Z,80.22
2022-12-16T05:46:40.171Z,132.00
2022-12-16T05:49:00.392Z,166.68
2022-12-16T05:51:20.276Z,47.65
2022-12-16T05:53:40.157Z,106.05
2022-12-16T05:56:01.103Z,57.03
2022-12-16T05:58:21.288Z,64.72
2022-12-16T06:00:41.236Z,42.78
2022-12-16T06:03:01.267Z,40.47
2022-12-16T06:05:21.282Z,41.83
2022-12-16T06:07:41.265Z,64.32
2022-12-16T06:10:01.545Z,87.70
2022-12-16T06:12:21.474Z,66.97
2022-12-16T06:14:41.339Z,48.05
2022-12-16T06:17:01.353Z,61.05
2022-12-16T06:19:21.365Z,77.95
2022-12-16T06:21:41.784Z,48.78
2022-12-16T06:24:01.850Z,58.90
2022-12-16T06:26:23.533Z,60.10
2022-12-16T06:28:46.038Z,78.00
2022-12-16T06:31:06.791Z,86.40
2022-12-16T06:33:26.948Z,109.35
2022-12-16T06:35:47.149Z,100.50
2022-12-16T06:38:07.078Z,34.20
2022-12-16T06:40:28.023Z,87.63
2022-12-16T06:42:47.854Z,103.32
2022-12-16T06:45:07.790Z,76.90
2022-12-16T06:47:27.723Z,110.82
2022-12-16T06:49:47.678Z,101.32
2022-12-16T06:52:07.768Z,149.55
2022-12-16T06:54:27.975Z,97.57
2022-12-16T06:56:47.963Z,71.60
2022-12-16T06:59:07.869Z,77.43
2022-12-16T07:01:27.802Z,80.35
2022-12-16T07:03:48.127Z,44.72
2022-12-16T07:06:12.239Z,76.22
2022-12-16T07:08:33.945Z,82.40
2022-12-16T07:10:54.992Z,107.32
2022-12-16T07:13:18.871Z,65.50
2022-12-16T07:15:38.835Z,83.30
2022-12-16T07:17:59.744Z,60.22
2022-12-16T07:20:19.482Z,70.93
2022-12-16T07:22:42.866Z,65.65
2022-12-16T07:25:02.775Z,74.05
2022-12-16T07:27:22.704Z,429.98
2022-12-16T07:29:42.713Z,105.68
2022-12-16T07:32:02.533Z,69.10
2022-12-16T07:34:22.742Z,62.55
2022-12-16T07:36:42.584Z,41.22
2022-12-16T07:39:02.606Z,51.33
2022-12-16T07:41:22.518Z,85.30
2022-12-16T07:43:42.478Z,38.10
2022-12-16T07:46:02.562Z,55.75
2022-12-16T07:48:22.759Z,73.60
2022-12-16T07:50:42.810Z,71.70
2022-12-16T07:53:02.779Z,60.17
2022-12-16T07:55:23.043Z,44.60
2022-12-16T07:57:42.976Z,77.43
2022-12-16T08:00:02.951Z,60.05
2022-12-16T08:02:23.536Z,65.82
2022-12-16T08:04:43.701Z,41.90
2022-12-16T08:07:04.039Z,43.75
2022-12-16T08:09:24.011Z,51.65
2022-12-16T08:11:43.927Z,71.25
2022-12-16T08:14:03.871Z,50.17
2022-12-16T08:16:24.396Z,67.47
2022-12-16T08:18:44.551Z,69.88
2022-12-16T08:21:04.904Z,83.00
2022-12-16T08:23:25.028Z,65.95
2022-12-16T08:25:45.450Z,73.03
2022-12-16T08:28:05.565Z,45.17
2022-12-16T08:30:26.626Z,51.10
2022-12-16T08:32:46.632Z,27.35
2022-12-16T08:35:10.939Z,48.53
2022-12-16T08:37:31.101Z,59.88
2022-12-16T08:40:04.862Z,45.40
2022-12-16T08:42:31.025Z,52.58
2022-12-16T08:44:51.460Z,55.03
2022-12-16T08:47:11.468Z,33.15
2022-12-16T08:49:31.683Z,38.92
2022-12-16T08:51:51.565Z,34.55
2022-12-16T08:54:11.535Z,30.98
2022-12-16T08:56:31.911Z,42.03
2022-12-16T08:58:51.831Z,59.15
2022-12-16T09:01:12.773Z,55.28
2022-12-16T09:03:33.258Z,59.13
2022-12-16T09:05:53.667Z,57.05
2022-12-16T09:08:18.480Z,57.60
2022-12-16T09:10:40.525Z,50.78
2022-12-16T09:13:00.904Z,72.05
2022-12-16T09:15:21.059Z,87.95
2022-12-16T09:17:41.004Z,118.40
2022-12-16T09:20:00.885Z,118.32
2022-12-16T09:22:20.885Z,87.03
2022-12-16T09:24:40.594Z,60.50
2022-12-16T09:27:00.563Z,63.40
2022-12-16T09:29:20.569Z,61.53
2022-12-16T09:31:40.505Z,68.53
2022-12-16T09:34:00.578Z,86.65
2022-12-16T09:36:20.600Z,45.90
2022-12-16T09:38:40.453Z,61.60
2022-12-16T09:41:01.706Z,62.75
2022-12-16T09:43:34.041Z,83.47
2022-12-16T09:46:13.527Z,102.40
2022-12-16T09:48:47.238Z,64.82
2022-12-16T09:51:17.354Z,79.85
2022-12-16T09:53:40.156Z,114.40
2022-12-16T09:56:03.115Z,66.07
2022-12-16T09:58:23.937Z,74.93
2022-12-16T10:00:46.388Z,53.60
2022-12-16T10:03:08.814Z,58.67
2022-12-16T10:05:34.304Z,95.88
2022-12-16T10:07:59.154Z,78.38
2022-12-16T10:10:52.031Z,97.15
2022-12-16T10:13:23.797Z,95.95
2022-12-16T10:15:43.879Z,92.57
2022-12-16T10:18:05.260Z,134.45
2022-12-16T10:20:40.750Z,139.18
2022-12-16T10:23:15.043Z,105.00
2022-12-16T10:25:41.046Z,163.05
2022-12-16T10:28:05.150Z,106.55
2022-12-16T10:30:32.048Z,126.05
2022-12-16T10:33:01.347Z,180.63
2022-12-16T10:35:35.667Z,146.18
2022-12-16T10:37:58.552Z,156.25
2022-12-16T10:40:20.356Z,78.85
2022-12-16T10:42:55.420Z,91.38
2022-12-16T10:45:20.134Z,78.88
2022-12-16T10:47:40.297Z,65.40
2022-12-16T10:50:00.206Z,83.10
2022-12-16T10:52:20.712Z,93.15
2022-12-16T10:54:56.999Z,97.68
2022-12-16T10:57:23.959Z,137.15
2022-12-16T10:59:53.918Z,136.80
2022-12-16T11:02:16.814Z,68.95
2022-12-16T11:04:56.129Z,70.35
2022-12-16T11:07:16.123Z,129.30
2022-12-16T11:09:47.755Z,107.22
2022-12-16T11:12:09.429Z,140.27
2022-12-16T11:14:34.678Z,98.43
2022-12-16T11:16:54.480Z,96.47
2022-12-16T11:19:16.412Z,94.72
2022-12-16T11:21:39.914Z,98.00
2022-12-16T11:23:59.904Z,116.80
2022-12-16T11:26:34.598Z,102.88
2022-12-16T11:28:56.343Z,93.10
2022-12-16T11:31:21.891Z,115.05
2022-12-16T11:33:43.974Z,113.82
2022-12-16T11:36:07.866Z,104.70
2022-12-16T11:38:38.312Z,77.40
2022-12-16T11:40:59.245Z,106.40
2022-12-16T11:43:22.116Z,103.03
2022-12-16T11:45:42.603Z,96.80
2022-12-16T11:48:09.632Z,103.63
2022-12-16T11:50:35.567Z,104.05
2022-12-16T11:52:55.964Z,99.22
2022-12-16T11:55:48.070Z,94.28
2022-12-16T11:58:12.678Z,99.38
2022-12-16T12:00:35.142Z,82.90
2022-12-16T12:03:13.521Z,99.65
2022-12-16T12:05:33.961Z,100.25
2022-12-16T12:08:03.585Z,77.65
2022-12-16T12:13:24.455Z,88.88
2022-12-16T12:15:55.149Z,97.78
2022-12-16T12:18:20.522Z,91.85
2022-12-16T12:20:59.439Z,99.55
2022-12-16T12:23:25.986Z,93.22
2022-12-16T12:26:12.031Z,83.10
2022-12-16T12:28:41.302Z,69.65
2022-12-16T12:31:24.805Z,76.65
2022-12-16T12:34:09.063Z,84.20
2022-12-16T12:36:44.168Z,80.75
2022-12-16T12:40:01.609Z,80.57
2022-12-16T12:42:47.240Z,78.30
2022-12-16T12:45:34.117Z,69.32
2022-12-16T12:47:59.943Z,94.40
2022-12-16T12:50:32.552Z,79.78
2022-12-16T12:53:27.257Z,82.15
2022-12-16T12:56:13.125Z,82.97
2022-12-16T12:58:35.638Z,69.20
2022-12-16T13:01:03.886Z,75.32
2022-12-16T13:03:34.920Z,81.72
2022-12-16T13:05:57.243Z,78.75
2022-12-16T13:08:56.464Z,132.32
2022-12-16T13:11:34.920Z,81.85
2022-12-16T13:13:55.780Z,75.60
2022-12-16T13:16:16.000Z,88.68
2022-12-16T13:18:41.435Z,91.13
2022-12-16T13:21:01.409Z,94.20
2022-12-16T13:23:47.910Z,91.53
2022-12-16T13:26:11.541Z,74.78
2022-12-16T13:28:39.740Z,58.03
2022-12-16T13:31:20.239Z,87.28
2022-12-16T13:33:49.618Z,94.38
2022-12-16T13:36:14.598Z,67.95
2022-12-16T13:38:40.870Z,75.15
2022-12-16T13:41:21.574Z,80.18
2022-12-16T13:44:12.050Z,80.20
2022-12-16T13:46:33.960Z,73.38
2022-12-16T13:48:58.330Z,76.97
2022-12-16T13:51:19.271Z,84.07
2022-12-16T13:53:43.784Z,85.93
2022-12-16T13:56:14.741Z,106.65
2022-12-16T13:58:47.214Z,98.57
2022-12-16T14:01:16.180Z,80.78
2022-12-16T14:03:58.154Z,98.18
2022-12-16T14:06:21.052Z,54.03
2022-12-16T14:08:42.961Z,99.15
2022-12-16T14:11:02.846Z,65.15
2022-12-16T14:13:41.600Z,85.13
2022-12-16T14:16:29.375Z,94.43
2022-12-16T14:19:03.833Z,84.03
2022-12-16T14:21:31.409Z,82.72
2022-12-16T14:24:08.258Z,87.07
2022-12-16T14:26:31.219Z,93.47
2022-12-16T14:28:55.883Z,106.72
2022-12-16T14:31:34.464Z,88.00
2022-12-16T14:33:54.391Z,66.43
2022-12-16T14:36:14.309Z,81.85
2022-12-16T14:38:48.060Z,81.68
2022-12-16T14:41:16.074Z,99.55
2022-12-16T14:43:44.633Z,94.60
2022-12-16T14:46:08.801Z,84.63
2022-12-16T14:48:53.131Z,93.03
2022-12-16T14:51:12.992Z,93.93
2022-12-16T14:53:42.992Z,106.95
2022-12-16T14:56:02.989Z,127.82
2022-12-16T14:58:32.023Z,122.15
2022-12-16T15:00:53.295Z,143.27
2022-12-16T15:03:17.186Z,89.07
2022-12-16T15:05:38.733Z,108.20
2022-12-16T15:07:59.209Z,103.03
2022-12-16T15:10:19.893Z,106.30
2022-12-16T15:12:44.483Z,126.57
2022-12-16T15:15:05.029Z,89.18
2022-12-16T15:17:25.618Z,70.97
2022-12-16T15:19:46.310Z,95.57
2022-12-16T15:22:06.795Z,102.13
2022-12-16T15:24:35.255Z,74.45
2022-12-16T15:26:55.675Z,73.30
2022-12-16T15:29:15.600Z,89.40
2022-12-16T15:31:49.675Z,104.05
2022-12-16T15:34:55.880Z,74.55
2022-12-16T15:37:16.108Z,76.72
2022-12-16T15:40:00.144Z,89.97
2022-12-16T15:42:20.099Z,95.50
2022-12-16T15:44:45.054Z,90.40
2022-12-16T15:47:07.200Z,72.95
2022-12-16T15:50:06.979Z,73.65
2022-12-16T15:52:58.914Z,84.50
2022-12-16T15:55:35.881Z,80.57
2022-12-16T15:57:57.230Z,78.55
2022-12-16T16:00:18.698Z,73.50
2022-12-16T16:02:41.013Z,66.90
2022-12-16T16:05:01.311Z,71.78
2022-12-16T16:07:21.504Z,69.32
2022-12-16T16:09:47.505Z,89.82
2022-12-16T16:12:07.478Z,70.40
2022-12-16T16:14:27.346Z,78.90
2022-12-16T16:16:48.001Z,79.57
2022-12-16T16:19:07.904Z,71.32
2022-12-16T16:21:27.865Z,75.22
2022-12-16T16:23:48.838Z,71.63
2022-12-16T16:26:09.335Z,79.10
2022-12-16T16:28:29.545Z,74.82
2022-12-16T16:30:49.978Z,78.25
2022-12-16T16:33:10.212Z,57.85
2022-12-16T16:35:30.387Z,52.75
2022-12-16T16:37:50.438Z,80.88
2022-12-16T16:40:10.467Z,72.55
2022-12-16T16:42:30.630Z,78.00
2022-12-16T16:44:50.421Z,76.47
2022-12-16T16:47:10.300Z,71.28
2022-12-16T16:49:37.455Z,73.70
2022-12-16T16:51:57.745Z,75.00
2022-12-16T16:54:17.830Z,153.68
2022-12-16T16:56:38.237Z,89.63
2022-12-16T16:58:58.361Z,84.20
2022-12-16T17:01:18.668Z,80.03
2022-12-16T17:03:40.035Z,85.28
2022-12-16T17:06:00.628Z,81.03
2022-12-16T17:08:20.513Z,83.95
2022-12-16T17:10:40.648Z,91.00
2022-12-16T17:13:04.430Z,94.60
2022-12-16T17:15:41.410Z,102.40
2022-12-16T17:18:01.547Z,103.35
2022-12-16T17:20:22.368Z,88.15
2022-12-16T17:22:42.323Z,104.95
2022-12-16T17:25:02.420Z,93.50
2022-12-16T17:27:32.546Z,92.72
2022-12-16T17:29:52.320Z,93.32
2022-12-16T17:32:12.268Z,97.95
2022-12-16T17:34:32.252Z,99.78
2022-12-16T17:36:52.105Z,108.40
2022-12-16T17:39:11.891Z,101.82
2022-12-16T17:41:31.815Z,102.05
2022-12-16T17:43:52.311Z,93.20
2022-12-16T17:46:17.148Z,112.05
2022-12-16T17:48:40.364Z,128.10
2022-12-16T17:51:03.931Z,111.82
2022-12-16T17:53:24.029Z,108.03
2022-12-16T17:55:44.113Z,123.55
2022-12-16T17:58:04.212Z,108.68
2022-12-16T18:00:25.066Z,80.47
2022-12-16T18:02:44.931Z,103.25
2022-12-16T18:05:05.119Z,115.63
2022-12-16T18:07:25.426Z,117.53
2022-12-16T18:09:45.422Z,104.75
2022-12-16T18:12:05.355Z,108.03
2022-12-16T18:14:25.306Z,112.05
2022-12-16T18:16:46.371Z,106.30
2022-12-16T18:19:09.730Z,115.22
2022-12-16T18:21:31.453Z,108.75
2022-12-16T18:23:51.556Z,108.20
2022-12-16T18:26:23.891Z,107.20
2022-12-16T18:28:43.708Z,103.85
2022-12-16T18:31:03.654Z,107.03
2022-12-16T18:33:23.588Z,109.57
2022-12-16T18:35:43.660Z,114.65
2022-12-16T18:38:03.819Z,121.93
2022-12-16T18:40:24.665Z,120.43
2022-12-16T18:42:44.536Z,107.97
2022-12-16T18:45:07.947Z,114.28
2022-12-16T18:47:28.074Z,114.57
2022-12-16T18:49:48.171Z,135.40
2022-12-16T18:52:08.010Z,99.03
2022-12-16T18:54:27.815Z,126.75
2022-12-16T18:56:48.161Z,116.50
2022-12-16T18:59:07.924Z,132.27
2022-12-16T19:01:29.924Z,125.75
2022-12-16T19:03:49.843Z,136.45
2022-12-16T19:06:13.631Z,114.30
2022-12-16T19:08:33.911Z,104.30
2022-12-16T19:10:53.965Z,133.40
2022-12-16T19:13:17.640Z,156.38
2022-12-16T19:15:41.437Z,102.82
2022-12-16T19:18:01.832Z,141.23
2022-12-16T19:20:22.125Z,128.60
2022-12-16T19:22:42.060Z,191.50
2022-12-16T19:25:02.059Z,138.35
2022-12-16T19:27:21.972Z,123.85
2022-12-16T19:29:43.018Z,123.25
2022-12-16T19:32:03.060Z,131.30
2022-12-16T19:34:23.426Z,117.40
2022-12-16T19:36:46.755Z,145.57
2022-12-16T19:39:07.274Z,113.85
2022-12-16T19:41:34.815Z,132.98
2022-12-16T19:43:58.715Z,139.02
2022-12-16T19:46:22.031Z,136.13
2022-12-16T19:48:42.247Z,120.22
2022-12-16T19:51:02.044Z,117.40
2022-12-16T19:53:21.938Z,114.72
2022-12-16T19:55:41.740Z,138.43
2022-12-16T19:58:01.545Z,134.23
2022-12-16T20:00:24.060Z,140.18
2022-12-16T20:02:44.949Z,148.48
2022-12-16T20:05:05.018Z,139.77
2022-12-16T20:07:24.807Z,133.05
2022-12-16T20:10:01.931Z,147.13
2022-12-16T20:12:22.194Z,133.05
2022-12-16T20:14:42.934Z,148.52
2022-12-16T20:17:02.835Z,141.07
2022-12-16T20:19:22.889Z,156.68
2022-12-16T20:21:46.334Z,149.45
2022-12-16T20:24:08.915Z,159.43
2022-12-16T20:26:29.285Z,136.40
2022-12-16T20:28:49.282Z,112.45
2022-12-16T20:31:09.507Z,127.38
2022-12-16T20:33:34.573Z,141.40
2022-12-16T20:35:56.283Z,122.35
2022-12-16T20:38:16.420Z,175.65
2022-12-16T20:40:36.610Z,182.75
2022-12-16T20:42:56.677Z,170.15
2022-12-16T20:45:16.581Z,171.55
2022-12-16T20:47:36.648Z,141.02
2022-12-16T20:49:56.841Z,141.95
2022-12-16T20:52:16.950Z,134.73
2022-12-16T20:54:36.964Z,167.40
2022-12-16T20:56:57.018Z,161.32
2022-12-16T20:59:17.448Z,150.45
2022-12-16T21:01:39.586Z,154.90
2022-12-16T21:04:01.533Z,140.68
2022-12-16T21:06:23.543Z,176.95
2022-12-16T21:08:43.551Z,169.80
2022-12-16T21:11:03.574Z,160.02
2022-12-16T21:13:28.242Z,160.60
2022-12-16T21:15:48.263Z,151.75
2022-12-16T21:18:08.121Z,141.82
2022-12-16T21:20:28.680Z,160.10
2022-12-16T21:22:48.708Z,109.45
2022-12-16T21:25:08.469Z,155.70
2022-12-16T21:27:28.467Z,146.95
2022-12-16T21:29:48.422Z,157.25
2022-12-16T21:32:09.043Z,160.40
2022-12-16T21:34:29.643Z,152.35
2022-12-16T21:36:49.718Z,146.55
2022-12-16T21:39:09.984Z,171.15
2022-12-16T21:41:30.147Z,168.90
2022-12-16T21:43:50.114Z,185.05
2022-12-16T21:46:11.594Z,150.23
2022-12-16T21:48:33.146Z,126.78
2022-12-16T21:50:53.069Z,156.73
2022-12-16T21:53:13.591Z,164.20
2022-12-16T21:55:33.576Z,149.00
2022-12-16T21:57:53.674Z,145.60
2022-12-16T22:00:16.744Z,167.43
2022-12-16T22:02:36.758Z,190.95
2022-12-16T22:04:57.098Z,162.25
2022-12-16T22:07:17.272Z,183.18
2022-12-16T22:09:37.533Z,175.73
2022-12-16T22:11:57.907Z,193.48
2022-12-16T22:14:18.494Z,99.07
2022-12-16T22:16:38.321Z,151.73
2022-12-16T22:18:58.557Z,172.43
2022-12-16T22:21:21.924Z,163.82
2022-12-16T22:23:47.043Z,166.43
2022-12-16T22:26:06.926Z,167.93
2022-12-16T22:28:26.790Z,159.57
2022-12-16T22:30:46.976Z,148.82
2022-12-16T22:33:07.174Z,197.48
2022-12-16T22:35:27.613Z,176.00
2022-12-16T22:37:47.951Z,176.88
2022-12-16T22:40:07.933Z,429.67
2022-12-16T22:42:28.077Z,216.43
2022-12-16T22:44:48.051Z,185.18
2022-12-16T22:47:07.811Z,187.82
2022-12-16T22:49:27.852Z,169.07
2022-12-16T22:51:47.821Z,191.50
2022-12-16T22:54:07.739Z,152.10
2022-12-16T22:56:28.418Z,183.20
2022-12-16T22:58:48.472Z,181.82
2022-12-16T23:01:08.358Z,176.52
2022-12-16T23:03:46.086Z,179.10
2022-12-16T23:06:06.403Z,172.90
2022-12-16T23:08:26.287Z,150.60
2022-12-16T23:10:46.120Z,174.80
2022-12-16T23:13:06.308Z,187.93
2022-12-16T23:15:29.409Z,187.85
2022-12-16T23:17:49.544Z,147.32
2022-12-16T23:20:09.689Z,167.90
2022-12-16T23:22:29.605Z,221.20
2022-12-16T23:24:50.012Z,153.25
2022-12-16T23:27:09.956Z,207.10
2022-12-16T23:29:30.711Z,204.35
2022-12-16T23:31:50.570Z,144.98
2022-12-16T23:34:10.730Z,193.05
2022-12-16T23:36:30.822Z,230.88
2022-12-16T23:38:50.868Z,208.45
2022-12-16T23:41:14.470Z,215.60
2022-12-16T23:43:34.325Z,149.65
2022-12-16T23:45:54.314Z,173.80
2022-12-16T23:48:21.470Z,171.73
2022-12-16T23:50:41.706Z,126.47
2022-12-16T23:53:01.539Z,185.20
2022-12-16T23:55:21.704Z,199.10
2022-12-16T23:57:56.173Z,189.65
